Time;durP1;ratioP1;P1;durP2;ratioP2;P2;SDS_P1;SDS_P2;PMS_P1;PMS_P2;Temp;Humidity;BMP_temperature;BMP_pressure;BME280_temperature;BME280_humidity;BME280_pressure;Samples;Min_cycle;Max_cycle;Signal;HPM_P1;HPM_P2
2021/05/20 00:01:47;;;;;;;0.95;0.20;;;10.10;99.90;;;;;;5028609;28;20041;-84
2021/05/20 00:04:16;;;;;;;0.75;0.30;;;10.10;99.90;;;;;;5041433;28;20039;-85
2021/05/20 00:06:41;;;;;;;0.77;0.30;;;10.00;99.90;;;;;;5033824;28;20293;-85
2021/05/20 00:09:07;;;;;;;1.38;0.30;;;10.00;99.90;;;;;;5033307;28;20021;-85
2021/05/20 00:11:33;;;;;;;0.80;0.30;;;10.00;99.90;;;;;;5033424;28;20033;-84
2021/05/20 00:13:59;;;;;;;0.65;0.20;;;9.90;99.90;;;;;;5034338;28;20112;-84
2021/05/20 00:16:25;;;;;;;1.27;0.35;;;9.90;99.90;;;;;;5032898;28;20116;-84
2021/05/20 00:18:51;;;;;;;1.55;0.30;;;10.00;99.90;;;;;;5032741;28;20053;-85
2021/05/20 00:21:17;;;;;;;1.30;0.30;;;10.00;99.90;;;;;;5032513;28;20504;-84
2021/05/20 00:23:42;;;;;;;1.70;0.40;;;10.10;99.90;;;;;;5032754;28;20021;-85
2021/05/20 00:26:12;;;;;;;1.98;0.57;;;10.10;99.90;;;;;;5039363;28;20067;-85
2021/05/20 00:28:39;;;;;;;1.40;0.30;;;10.00;99.90;;;;;;5052008;28;20052;-84
2021/05/20 00:31:05;;;;;;;1.20;0.30;;;10.00;99.90;;;;;;5034141;28;20036;-84
2021/05/20 00:33:31;;;;;;;0.73;0.30;;;10.00;99.90;;;;;;5033950;28;20025;-85
2021/05/20 00:35:56;;;;;;;0.85;0.30;;;10.00;99.90;;;;;;5031931;28;20022;-85
2021/05/20 00:38:22;;;;;;;0.65;0.20;;;9.90;99.90;;;;;;5033008;28;20080;-85
2021/05/20 00:40:48;;;;;;;1.17;0.40;;;9.90;99.90;;;;;;5033159;28;20351;-85
2021/05/20 00:43:13;;;;;;;0.85;0.30;;;9.80;99.90;;;;;;5031864;28;20030;-85
2021/05/20 00:45:39;;;;;;;0.98;0.40;;;9.80;99.90;;;;;;5041656;28;20032;-85
2021/05/20 00:48:06;;;;;;;2.00;0.65;;;9.70;99.90;;;;;;5037304;28;20037;-86
2021/05/20 00:50:31;;;;;;;0.93;0.30;;;9.70;99.90;;;;;;5031426;28;20029;-85
2021/05/20 00:52:57;;;;;;;1.30;0.47;;;9.70;99.90;;;;;;5031416;28;20052;-85
2021/05/20 00:55:24;;;;;;;0.68;0.30;;;9.60;99.90;;;;;;5029114;28;20053;-84
2021/05/20 00:57:51;;;;;;;0.98;0.35;;;9.60;99.90;;;;;;5033828;28;20052;-84
2021/05/20 01:00:18;;;;;;;2.15;0.45;;;9.50;99.90;;;;;;5031608;28;20033;-85
2021/05/20 01:02:44;;;;;;;0.93;0.30;;;9.40;99.90;;;;;;5031018;28;20327;-85
2021/05/20 01:05:12;;;;;;;2.65;0.38;;;9.30;99.90;;;;;;5032968;28;20017;-85
2021/05/20 01:07:38;;;;;;;1.05;0.30;;;9.30;99.90;;;;;;5032341;28;20028;-84
2021/05/20 01:10:05;;;;;;;1.35;0.45;;;9.30;99.90;;;;;;5033797;28;20057;-85
2021/05/20 01:12:32;;;;;;;0.60;0.30;;;9.30;99.90;;;;;;5033119;28;20049;-85
2021/05/20 01:14:57;;;;;;;1.85;0.40;;;9.40;99.90;;;;;;5033124;28;20510;-84
2021/05/20 01:17:25;;;;;;;1.35;0.43;;;9.40;99.90;;;;;;5031912;28;20037;-84
2021/05/20 01:19:51;;;;;;;3.72;0.50;;;9.40;99.90;;;;;;5031787;28;20056;-85
2021/05/20 01:22:17;;;;;;;0.82;0.20;;;9.40;99.90;;;;;;5018620;28;20026;-84
2021/05/20 01:24:44;;;;;;;1.77;0.30;;;9.40;99.90;;;;;;5012032;28;20105;-84
2021/05/20 01:27:11;;;;;;;1.02;0.30;;;9.30;99.90;;;;;;5036243;28;20029;-85
2021/05/20 01:29:39;;;;;;;1.20;0.30;;;9.40;99.90;;;;;;5030803;28;20084;-85
2021/05/20 01:32:05;;;;;;;0.80;0.25;;;9.30;99.90;;;;;;5030116;28;20029;-85
2021/05/20 01:34:32;;;;;;;0.50;0.30;;;9.40;99.90;;;;;;5031819;28;20068;-85
2021/05/20 01:37:03;;;;;;;1.13;0.30;;;9.30;99.90;;;;;;5046960;28;20499;-85
2021/05/20 01:39:28;;;;;;;2.78;0.43;;;9.20;99.90;;;;;;5028123;28;20034;-84
2021/05/20 01:41:54;;;;;;;0.80;0.25;;;9.20;99.90;;;;;;5012355;28;20387;-84
2021/05/20 01:44:21;;;;;;;1.67;0.60;;;9.20;99.90;;;;;;5016058;28;20072;-85
2021/05/20 01:46:47;;;;;;;4.03;0.30;;;9.10;99.90;;;;;;5015153;28;20030;-84
2021/05/20 01:49:13;;;;;;;1.00;0.30;;;9.10;99.90;;;;;;5024093;28;20033;-85
2021/05/20 01:51:42;;;;;;;0.82;0.40;;;9.20;99.90;;;;;;5035537;28;20033;-85
2021/05/20 01:54:08;;;;;;;2.17;0.40;;;9.20;99.90;;;;;;5035706;28;20056;-84
2021/05/20 01:56:36;;;;;;;1.08;0.30;;;9.20;99.90;;;;;;5043694;28;20090;-85
2021/05/20 01:59:06;;;;;;;0.57;0.30;;;9.10;99.90;;;;;;5055268;28;20048;-85
2021/05/20 02:01:32;;;;;;;0.65;0.32;;;9.10;99.90;;;;;;5039677;28;20033;-85
2021/05/20 02:03:58;;;;;;;0.75;0.40;;;9.30;99.90;;;;;;5034726;28;20022;-85
2021/05/20 02:06:24;;;;;;;2.08;0.45;;;9.30;99.90;;;;;;5035613;28;20497;-84
2021/05/20 02:08:49;;;;;;;0.82;0.30;;;9.20;99.90;;;;;;5031849;28;20026;-85
2021/05/20 02:11:15;;;;;;;0.50;0.20;;;9.30;99.90;;;;;;5031620;28;20481;-84
2021/05/20 02:13:41;;;;;;;0.77;0.30;;;9.20;99.90;;;;;;5042784;28;20040;-84
2021/05/20 02:16:07;;;;;;;1.20;0.30;;;9.00;99.90;;;;;;5056113;28;20174;-84
2021/05/20 02:18:33;;;;;;;1.13;0.45;;;9.00;99.90;;;;;;5040226;28;20043;-84
2021/05/20 02:20:59;;;;;;;0.80;0.25;;;8.90;99.90;;;;;;5046207;28;20071;-85
2021/05/20 02:23:24;;;;;;;1.40;0.38;;;8.80;99.90;;;;;;5070049;28;20103;-84
2021/05/20 02:25:50;;;;;;;0.93;0.40;;;8.80;99.90;;;;;;5051003;28;20144;-84
2021/05/20 02:28:16;;;;;;;0.98;0.30;;;8.70;99.90;;;;;;5036848;28;20466;-85
2021/05/20 02:30:42;;;;;;;0.93;0.30;;;8.60;99.90;;;;;;5033492;28;20821;-84
2021/05/20 02:33:08;;;;;;;1.10;0.43;;;8.60;99.90;;;;;;5033894;28;20143;-84
2021/05/20 02:35:33;;;;;;;0.80;0.40;;;8.60;99.90;;;;;;5039229;28;20026;-85
2021/05/20 02:37:59;;;;;;;0.90;0.30;;;8.60;99.90;;;;;;5036234;28;20494;-84
2021/05/20 02:40:25;;;;;;;1.67;0.30;;;8.60;99.90;;;;;;5052113;28;20509;-84
2021/05/20 02:42:50;;;;;;;1.13;0.40;;;8.60;99.90;;;;;;5034314;28;20021;-84
2021/05/20 02:45:19;;;;;;;1.02;0.40;;;8.60;99.90;;;;;;5037736;28;20025;-84
2021/05/20 02:47:47;;;;;;;0.75;0.45;;;8.60;99.90;;;;;;5021354;28;20072;-84
2021/05/20 02:50:14;;;;;;;1.55;0.40;;;8.60;99.90;;;;;;5031841;28;20458;-85
2021/05/20 02:52:43;;;;;;;0.77;0.40;;;8.60;99.90;;;;;;5033549;28;20021;-84
2021/05/20 02:55:11;;;;;;;1.65;0.45;;;8.50;99.90;;;;;;5034963;28;20017;-84
2021/05/20 02:57:37;;;;;;;2.30;0.68;;;8.60;99.90;;;;;;5033780;28;20083;-84
2021/05/20 03:00:04;;;;;;;1.25;0.40;;;8.60;99.90;;;;;;5034096;28;20057;-85
2021/05/20 03:02:30;;;;;;;1.80;0.25;;;8.70;99.90;;;;;;5035146;28;20022;-84
2021/05/20 03:04:56;;;;;;;0.77;0.30;;;8.70;99.90;;;;;;5033593;28;20048;-84
2021/05/20 03:07:21;;;;;;;1.75;0.40;;;8.50;99.90;;;;;;5033924;28;20493;-84
2021/05/20 03:09:47;;;;;;;0.68;0.30;;;8.60;99.90;;;;;;5035588;28;20108;-84
2021/05/20 03:12:12;;;;;;;0.73;0.30;;;8.50;99.90;;;;;;5033815;28;20052;-85
2021/05/20 03:14:38;;;;;;;1.33;0.30;;;8.50;99.90;;;;;;5033647;28;20026;-84
2021/05/20 03:17:09;;;;;;;1.40;0.40;;;8.50;99.90;;;;;;5034388;28;20486;-84
2021/05/20 03:19:35;;;;;;;1.08;0.30;;;8.50;99.90;;;;;;5033323;28;20378;-84
2021/05/20 03:22:01;;;;;;;1.35;0.50;;;8.60;99.90;;;;;;5034827;28;20125;-84
2021/05/20 03:24:27;;;;;;;1.42;0.40;;;8.60;99.90;;;;;;5035008;28;20430;-84
2021/05/20 03:26:53;;;;;;;2.55;0.50;;;8.60;99.90;;;;;;5042120;28;20035;-85
2021/05/20 03:29:18;;;;;;;1.08;0.30;;;8.50;99.90;;;;;;5033429;28;20064;-84
2021/05/20 03:31:44;;;;;;;1.35;0.30;;;8.50;99.90;;;;;;5033693;28;20044;-84
2021/05/20 03:34:10;;;;;;;1.75;0.40;;;8.40;99.90;;;;;;5035823;28;20052;-84
2021/05/20 03:36:35;;;;;;;1.55;0.50;;;8.40;99.90;;;;;;5055335;28;20466;-84
2021/05/20 03:39:02;;;;;;;1.50;0.30;;;8.40;99.90;;;;;;5068507;28;20032;-84
2021/05/20 03:41:27;;;;;;;1.00;0.30;;;8.50;99.90;;;;;;5050517;28;20122;-85
2021/05/20 03:43:53;;;;;;;1.17;0.30;;;8.50;99.90;;;;;;5052060;28;20485;-85
2021/05/20 03:46:20;;;;;;;0.82;0.35;;;8.50;99.90;;;;;;5051279;28;20021;-84
2021/05/20 03:48:46;;;;;;;1.83;0.40;;;8.60;99.90;;;;;;5048107;28;20071;-85
2021/05/20 03:51:11;;;;;;;0.50;0.30;;;8.50;99.90;;;;;;5030203;28;20021;-85
2021/05/20 03:53:37;;;;;;;1.65;0.30;;;8.80;99.90;;;;;;5030276;28;20021;-85
2021/05/20 03:56:03;;;;;;;0.80;0.38;;;8.50;99.90;;;;;;5035302;28;20742;-87
2021/05/20 03:58:29;;;;;;;1.63;0.38;;;8.50;99.90;;;;;;5035450;28;20026;-85
2021/05/20 04:00:55;;;;;;;1.27;0.40;;;8.50;99.90;;;;;;5015447;28;20096;-84
2021/05/20 04:03:25;;;;;;;1.40;0.30;;;8.70;99.90;;;;;;5014964;28;20033;-85
2021/05/20 04:05:52;;;;;;;0.80;0.40;;;8.50;99.90;;;;;;5020419;28;20029;-85
2021/05/20 04:08:18;;;;;;;2.25;0.30;;;8.60;99.90;;;;;;5037802;28;20029;-85
2021/05/20 04:10:43;;;;;;;0.52;0.25;;;8.70;99.90;;;;;;5038577;28;20486;-85
2021/05/20 04:13:09;;;;;;;1.33;0.57;;;8.70;99.90;;;;;;5032739;28;20032;-85
2021/05/20 04:15:35;;;;;;;1.92;0.32;;;8.80;99.90;;;;;;5033741;28;20036;-85
2021/05/20 04:18:00;;;;;;;1.17;0.30;;;8.80;99.90;;;;;;5031814;28;20111;-85
2021/05/20 04:20:26;;;;;;;1.30;0.30;;;8.80;99.90;;;;;;5032942;28;20029;-85
2021/05/20 04:22:51;;;;;;;1.05;0.30;;;8.80;99.90;;;;;;5032078;28;20556;-85
2021/05/20 04:25:18;;;;;;;0.73;0.30;;;8.80;99.90;;;;;;5032078;28;20045;-85
2021/05/20 04:27:44;;;;;;;0.55;0.32;;;8.70;99.90;;;;;;5045960;28;20071;-84
2021/05/20 04:30:10;;;;;;;1.10;0.17;;;8.60;99.90;;;;;;5014617;28;20199;-84
2021/05/20 04:32:36;;;;;;;1.05;0.40;;;8.50;99.90;;;;;;5019770;28;20041;-85
2021/05/20 04:35:02;;;;;;;0.50;0.20;;;8.50;99.90;;;;;;5032485;28;20029;-85
2021/05/20 04:37:27;;;;;;;0.88;0.30;;;8.50;99.90;;;;;;5051994;28;20074;-85
2021/05/20 04:39:53;;;;;;;1.15;0.20;;;8.60;99.90;;;;;;5064162;28;20502;-85
2021/05/20 04:42:19;;;;;;;0.73;0.20;;;8.60;99.90;;;;;;5030350;28;20029;-85
2021/05/20 04:44:44;;;;;;;0.90;0.30;;;8.60;99.90;;;;;;5030784;28;20034;-85
2021/05/20 04:47:13;;;;;;;1.15;0.47;;;8.50;99.90;;;;;;5029652;28;20025;-85
2021/05/20 04:49:38;;;;;;;1.50;0.40;;;8.50;99.90;;;;;;5029275;28;20347;-84
2021/05/20 04:52:05;;;;;;;0.40;0.30;;;8.50;99.90;;;;;;5030554;28;20041;-85
2021/05/20 04:54:30;;;;;;;1.83;0.47;;;8.50;99.90;;;;;;5029385;28;20136;-85
2021/05/20 04:56:56;;;;;;;1.05;0.40;;;8.50;99.90;;;;;;5040557;28;20033;-84
2021/05/20 04:59:22;;;;;;;1.10;0.30;;;8.50;99.90;;;;;;5035819;28;20026;-85
2021/05/20 05:01:47;;;;;;;0.80;0.30;;;8.70;99.90;;;;;;5027173;28;20034;-85
2021/05/20 05:04:13;;;;;;;2.47;0.40;;;8.80;99.90;;;;;;5030481;28;20037;-85
2021/05/20 05:06:38;;;;;;;1.52;0.40;;;8.80;99.90;;;;;;5029268;28;20414;-85
2021/05/20 05:09:04;;;;;;;2.50;0.45;;;8.80;99.90;;;;;;5029341;28;20079;-85
2021/05/20 05:11:30;;;;;;;1.25;0.50;;;8.80;99.90;;;;;;5041811;28;20504;-85
2021/05/20 05:13:55;;;;;;;1.00;0.30;;;8.80;99.90;;;;;;5028075;28;20464;-85
2021/05/20 05:16:23;;;;;;;0.98;0.30;;;8.90;99.90;;;;;;5028965;28;20038;-84
2021/05/20 05:18:49;;;;;;;0.50;0.28;;;8.80;99.90;;;;;;5032682;28;20033;-87
2021/05/20 05:21:15;;;;;;;1.48;0.50;;;8.90;99.90;;;;;;5032306;28;20032;-85
2021/05/20 05:23:40;;;;;;;0.93;0.30;;;9.00;99.90;;;;;;5032390;28;20431;-84
2021/05/20 05:26:06;;;;;;;1.20;0.30;;;9.30;99.90;;;;;;5032326;28;20627;-85
2021/05/20 05:28:32;;;;;;;0.90;0.40;;;9.30;99.90;;;;;;5032512;28;20025;-85
2021/05/20 05:30:57;;;;;;;1.30;0.30;;;9.40;99.90;;;;;;5032335;28;20109;-85
2021/05/20 05:33:24;;;;;;;1.88;0.30;;;9.20;99.90;;;;;;5027525;28;20401;-85
2021/05/20 05:35:49;;;;;;;1.13;0.38;;;9.20;99.90;;;;;;5036482;28;20036;-85
2021/05/20 05:38:15;;;;;;;1.02;0.38;;;9.20;99.90;;;;;;5030282;28;20104;-85
2021/05/20 05:40:42;;;;;;;2.38;0.50;;;9.20;99.90;;;;;;5030126;28;20398;-85
2021/05/20 05:43:07;;;;;;;1.45;0.40;;;9.30;99.90;;;;;;5028694;28;20474;-85
2021/05/20 05:45:33;;;;;;;1.27;0.40;;;9.80;99.90;;;;;;5025731;28;20098;-85
2021/05/20 05:47:59;;;;;;;1.20;0.40;;;9.50;99.90;;;;;;5031101;28;20063;-85
2021/05/20 05:50:24;;;;;;;0.63;0.30;;;9.70;99.90;;;;;;5028781;28;20131;-85
2021/05/20 05:52:50;;;;;;;2.38;0.50;;;9.90;99.90;;;;;;5029614;28;20397;-85
2021/05/20 05:55:16;;;;;;;0.88;0.32;;;10.00;99.90;;;;;;5027675;28;20040;-85
2021/05/20 05:57:41;;;;;;;0.55;0.30;;;10.10;99.90;;;;;;5030124;28;20037;-85
2021/05/20 06:00:07;;;;;;;1.92;0.40;;;10.20;99.90;;;;;;5027696;28;20116;-85
2021/05/20 06:02:34;;;;;;;0.88;0.40;;;10.20;99.90;;;;;;5026730;28;20057;-85
2021/05/20 06:05:01;;;;;;;1.05;0.40;;;10.10;99.90;;;;;;5030836;28;20075;-85
2021/05/20 06:07:27;;;;;;;2.08;0.30;;;10.20;99.90;;;;;;5024848;28;20033;-86
2021/05/20 06:09:54;;;;;;;1.38;0.40;;;10.20;99.90;;;;;;5031670;28;20108;-85
2021/05/20 06:12:19;;;;;;;1.40;0.38;;;10.30;99.90;;;;;;5031489;28;20390;-85
2021/05/20 06:14:45;;;;;;;1.25;0.35;;;10.30;99.90;;;;;;5031872;28;20505;-86
2021/05/20 06:17:11;;;;;;;1.30;0.93;;;10.30;99.90;;;;;;5031495;28;20030;-85
2021/05/20 06:19:37;;;;;;;1.08;0.40;;;10.30;99.90;;;;;;5029010;28;20030;-85
2021/05/20 06:22:02;;;;;;;0.60;0.20;;;10.20;99.90;;;;;;5030900;28;20022;-85
2021/05/20 06:24:28;;;;;;;1.02;0.35;;;10.20;99.90;;;;;;5031145;28;20041;-85
2021/05/20 06:26:54;;;;;;;0.75;0.30;;;10.20;99.90;;;;;;5037652;28;20025;-85
2021/05/20 06:29:19;;;;;;;0.70;0.32;;;10.20;99.90;;;;;;5031291;28;20030;-85
2021/05/20 06:31:45;;;;;;;1.02;0.25;;;10.20;99.90;;;;;;5031849;28;20183;-84
2021/05/20 06:34:12;;;;;;;0.65;0.30;;;10.70;99.90;;;;;;5033300;28;20029;-85
2021/05/20 06:36:37;;;;;;;0.95;0.43;;;10.20;99.90;;;;;;5034373;28;20552;-87
2021/05/20 06:39:08;;;;;;;1.33;0.40;;;10.20;99.90;;;;;;5030016;28;20025;-86
2021/05/20 06:41:34;;;;;;;1.05;0.22;;;10.20;99.90;;;;;;5024761;28;20029;-86
2021/05/20 06:43:59;;;;;;;0.40;0.20;;;10.20;99.90;;;;;;5025041;28;20022;-86
2021/05/20 06:46:25;;;;;;;0.95;0.20;;;10.40;99.90;;;;;;5031210;28;20049;-85
2021/05/20 06:48:51;;;;;;;0.75;0.20;;;10.50;99.90;;;;;;5030290;28;20329;-85
2021/05/20 06:51:16;;;;;;;1.25;0.40;;;10.80;99.90;;;;;;5032338;28;20025;-85
2021/05/20 06:53:42;;;;;;;1.25;0.30;;;11.30;99.90;;;;;;5028977;28;20051;-85
2021/05/20 06:56:16;;;;;;;0.95;0.40;;;11.20;99.90;;;;;;5041255;28;20079;-85
2021/05/20 07:01:25;;;;;;;1.10;0.50;;;11.40;99.90;;;;;;5026139;28;20060;-86
2021/05/20 07:03:51;;;;;;;1.15;0.40;;;11.80;99.90;;;;;;5021041;28;20053;-86
2021/05/20 07:06:18;;;;;;;0.82;0.45;;;12.10;99.90;;;;;;5034719;28;20024;-86
2021/05/20 07:08:44;;;;;;;0.88;0.30;;;12.20;99.90;;;;;;5030811;28;20037;-87
2021/05/20 07:12:02;;;;;;;0.77;0.30;;;12.30;99.90;;;;;;5028674;28;20026;-89
2021/05/20 07:15:07;;;;;;;1.05;0.30;;;12.10;99.90;;;;;;4992523;28;20042;-89
2021/05/20 07:18:01;;;;;;;0.75;0.55;;;12.00;99.90;;;;;;5005192;28;20041;-88
2021/05/20 07:20:30;;;;;;;1.10;0.40;;;11.90;99.90;;;;;;5025875;28;20492;-89
2021/05/20 07:23:30;;;;;;;0.60;0.20;;;12.20;99.90;;;;;;5042747;28;20018;-88
2021/05/20 07:25:57;;;;;;;0.88;0.40;;;12.10;99.90;;;;;;5017486;28;20041;-89
2021/05/20 07:28:45;;;;;;;0.57;0.40;;;12.30;99.90;;;;;;5031987;28;20029;-89
2021/05/20 07:32:16;;;;;;;0.80;0.32;;;12.50;99.90;;;;;;5000347;28;20034;-90
2021/05/20 07:41:59;;;;;;;1.40;0.52;;;12.50;99.90;;;;;;4962941;28;20052;-89
2021/05/20 07:44:27;;;;;;;1.38;0.40;;;12.50;99.90;;;;;;4950010;28;20035;-89
2021/05/20 07:46:56;;;;;;;1.45;0.50;;;12.60;99.90;;;;;;4953865;28;20503;-89
2021/05/20 07:49:26;;;;;;;1.13;0.50;;;12.80;99.90;;;;;;4996968;28;20079;-89
2021/05/20 07:51:58;;;;;;;1.55;0.40;;;12.30;99.90;;;;;;5029744;28;20025;-89
2021/05/20 07:54:28;;;;;;;2.47;0.40;;;12.60;99.90;;;;;;5029471;28;20044;-89
2021/05/20 07:57:20;;;;;;;2.25;0.30;;;12.30;99.90;;;;;;5029008;28;20041;-89
2021/05/20 07:59:49;;;;;;;1.25;0.40;;;12.40;99.90;;;;;;5027166;28;20037;-89
2021/05/20 08:11:10;;;;;;;1.10;0.30;;;13.00;99.90;;;;;;4991838;28;20076;-87
2021/05/20 08:13:36;;;;;;;1.40;0.60;;;12.90;99.90;;;;;;5020605;28;20022;-87
2021/05/20 08:16:02;;;;;;;0.98;0.38;;;13.30;99.90;;;;;;5023749;28;20604;-87
2021/05/20 08:18:29;;;;;;;0.85;0.35;;;13.40;99.90;;;;;;5035141;28;20080;-87
2021/05/20 08:20:55;;;;;;;1.20;0.40;;;14.10;99.90;;;;;;5016719;28;20041;-87
2021/05/20 08:23:21;;;;;;;0.73;0.30;;;14.00;99.90;;;;;;5019144;28;20037;-87
2021/05/20 08:25:47;;;;;;;1.40;0.28;;;14.00;99.90;;;;;;5026967;28;20057;-88
2021/05/20 08:28:13;;;;;;;1.15;0.30;;;14.00;99.90;;;;;;5038655;28;20073;-88
2021/05/20 08:30:39;;;;;;;1.08;0.20;;;13.90;99.90;;;;;;5043200;28;20018;-87
2021/05/20 08:33:05;;;;;;;1.05;0.20;;;14.00;99.90;;;;;;5035078;28;20035;-88
2021/05/20 08:35:31;;;;;;;0.90;0.30;;;13.70;99.90;;;;;;5032694;28;20178;-88
2021/05/20 08:37:57;;;;;;;1.15;0.20;;;13.60;99.90;;;;;;5027225;28;20112;-88
2021/05/20 08:40:23;;;;;;;0.35;0.20;;;13.70;99.90;;;;;;5025651;28;20022;-87
2021/05/20 08:42:49;;;;;;;0.63;0.20;;;13.70;99.90;;;;;;5025722;28;20469;-87
2021/05/20 08:45:16;;;;;;;0.30;0.20;;;13.80;99.90;;;;;;5035812;28;20494;-87
2021/05/20 08:47:44;;;;;;;0.35;0.20;;;13.70;99.90;;;;;;5033109;28;20386;-88
2021/05/20 08:50:10;;;;;;;0.82;0.30;;;13.80;99.90;;;;;;5026085;28;20053;-87
2021/05/20 08:52:41;;;;;;;0.88;0.30;;;13.80;99.90;;;;;;5029040;28;20033;-88
2021/05/20 08:55:12;;;;;;;0.80;0.20;;;13.90;99.90;;;;;;5041508;28;20036;-87
2021/05/20 08:57:39;;;;;;;1.10;0.40;;;14.30;99.90;;;;;;5031698;28;20029;-87
2021/05/20 09:00:10;;;;;;;0.65;0.17;;;14.60;99.90;;;;;;5036008;28;20067;-88
2021/05/20 09:02:36;;;;;;;0.35;0.20;;;14.80;99.90;;;;;;5030574;28;20035;-88
2021/05/20 09:05:06;;;;;;;0.80;0.35;;;14.70;99.90;;;;;;5032907;28;20029;-88
2021/05/20 09:07:37;;;;;;;0.73;0.20;;;14.50;99.90;;;;;;5041503;28;20021;-88
2021/05/20 09:10:19;;;;;;;0.50;0.30;;;14.20;99.90;;;;;;5036070;28;20107;-88
2021/05/20 09:12:47;;;;;;;0.40;0.20;;;14.20;99.90;;;;;;5029555;28;20124;-89
2021/05/20 09:15:30;;;;;;;0.30;0.10;;;14.10;99.90;;;;;;5039083;28;20029;-89
2021/05/20 09:18:23;;;;;;;0.93;0.28;;;14.00;99.90;;;;;;5090887;22;20048;-85
2021/05/20 09:20:56;;;;;;;1.95;0.20;;;14.00;99.90;;;;;;5051666;28;20036;-86
2021/05/20 09:23:24;;;;;;;0.93;0.20;;;13.90;99.90;;;;;;5053994;28;20227;-85
2021/05/20 09:25:52;;;;;;;0.70;0.28;;;13.80;99.90;;;;;;5052509;28;20488;-84
2021/05/20 09:28:35;;;;;;;0.43;0.20;;;13.80;99.90;;;;;;5038188;28;20041;-84
2021/05/20 09:31:00;;;;;;;1.05;0.20;;;13.80;99.90;;;;;;5039469;28;20028;-84
2021/05/20 09:33:27;;;;;;;1.02;0.40;;;13.80;99.90;;;;;;5023371;28;20097;-86
2021/05/20 09:35:53;;;;;;;0.63;0.30;;;13.80;99.90;;;;;;5033443;28;20397;-85
2021/05/20 09:38:23;;;;;;;0.30;0.10;;;13.90;99.90;;;;;;5038303;28;20045;-84
2021/05/20 09:40:56;;;;;;;0.65;0.20;;;14.00;99.90;;;;;;5031528;28;20040;-84
2021/05/20 09:43:30;;;;;;;0.47;0.20;;;14.20;99.90;;;;;;5032072;28;20072;-85
2021/05/20 09:45:58;;;;;;;0.47;0.20;;;14.20;99.90;;;;;;5021231;28;20030;-86
2021/05/20 09:48:26;;;;;;;0.95;0.20;;;14.20;99.90;;;;;;5034022;28;20108;-87
2021/05/20 09:50:58;;;;;;;1.50;0.10;;;14.40;99.90;;;;;;5035140;28;20057;-86
2021/05/20 09:53:24;;;;;;;;;;;14.60;99.90;;;;;;5032896;28;20044;-87
2021/05/20 09:55:57;;;;;;;0.40;0.20;;;14.80;99.90;;;;;;5027404;28;20003;-85
2021/05/20 09:58:28;;;;;;;0.60;0.22;;;14.70;99.90;;;;;;5036139;28;20112;-83
2021/05/20 10:00:55;;;;;;;0.55;0.20;;;14.70;99.90;;;;;;5033765;28;20513;-84
2021/05/20 10:03:22;;;;;;;0.30;0.10;;;14.60;99.90;;;;;;5032212;28;20021;-85
2021/05/20 10:05:53;;;;;;;0.50;0.10;;;14.60;99.90;;;;;;5032712;28;20036;-86
2021/05/20 10:08:20;;;;;;;1.75;0.20;;;14.70;99.90;;;;;;5035720;28;20017;-86
2021/05/20 10:10:55;;;;;;;1.85;0.60;;;14.60;99.90;;;;;;5035730;28;20025;-85
2021/05/20 10:13:23;;;;;;;0.30;0.10;;;14.50;99.90;;;;;;5032829;28;20033;-86
2021/05/20 10:15:49;;;;;;;0.75;0.20;;;14.60;99.90;;;;;;5029740;28;20086;-86
2021/05/20 10:18:20;;;;;;;0.55;0.22;;;14.60;99.90;;;;;;5027895;28;20444;-86
2021/05/20 10:20:48;;;;;;;0.85;0.10;;;14.70;99.90;;;;;;5032600;28;20040;-85
2021/05/20 10:23:16;;;;;;;0.47;0.10;;;14.80;99.90;;;;;;5031667;28;20021;-86
2021/05/20 10:25:44;;;;;;;1.00;0.20;;;14.80;99.90;;;;;;5037602;28;20026;-86
2021/05/20 10:28:14;;;;;;;1.50;0.20;;;15.00;99.50;;;;;;5030424;28;21160;-86
2021/05/20 10:30:41;;;;;;;0.50;0.10;;;14.90;99.50;;;;;;5028747;28;20057;-86
2021/05/20 10:33:08;;;;;;;0.70;0.20;;;15.50;98.80;;;;;;5022784;28;20022;-86
2021/05/20 10:35:51;;;;;;;0.47;0.20;;;15.80;98.40;;;;;;5026835;28;20029;-86
2021/05/20 10:38:36;;;;;;;0.70;0.20;;;16.40;98.10;;;;;;5032137;28;20037;-86
2021/05/20 10:41:26;;;;;;;0.50;0.20;;;16.50;96.70;;;;;;5028882;28;20051;-86
2021/05/20 10:44:08;;;;;;;0.80;0.20;;;16.50;96.20;;;;;;5029940;28;20037;-86
2021/05/20 10:47:03;;;;;;;1.25;0.10;;;16.30;93.90;;;;;;5035271;28;20316;-86
2021/05/20 10:49:50;;;;;;;1.10;0.20;;;16.10;94.30;;;;;;5027514;28;20100;-86
2021/05/20 10:52:41;;;;;;;0.35;0.13;;;16.00;92.40;;;;;;5026312;28;20078;-86
2021/05/20 10:55:14;;;;;;;1.25;0.10;;;15.60;95.00;;;;;;5038102;28;20036;-86
2021/05/20 10:57:57;;;;;;;0.55;0.20;;;15.30;93.80;;;;;;5037891;28;20025;-86
2021/05/20 11:00:42;;;;;;;0.47;0.30;;;15.20;94.50;;;;;;5039066;28;20172;-85
2021/05/20 11:03:15;;;;;;;0.43;0.17;;;15.20;94.50;;;;;;5056517;28;20013;-86
2021/05/20 11:05:43;;;;;;;0.35;0.17;;;15.20;94.70;;;;;;5040633;28;20108;-85
2021/05/20 11:08:28;;;;;;;0.38;0.10;;;15.40;94.10;;;;;;5014796;28;20021;-86
2021/05/20 11:10:54;;;;;;;1.08;0.15;;;15.60;94.70;;;;;;5036545;28;20040;-86
2021/05/20 11:13:44;;;;;;;1.23;0.13;;;15.50;95.30;;;;;;5046775;28;20025;-85
2021/05/20 11:16:29;;;;;;;1.17;0.10;;;16.00;93.40;;;;;;5044460;28;20036;-86
2021/05/20 11:19:24;;;;;;;1.55;0.10;;;16.60;94.40;;;;;;5044170;28;20096;-86
2021/05/20 11:21:58;;;;;;;0.20;0.10;;;16.80;90.60;;;;;;5042983;28;20021;-86
2021/05/20 11:24:37;;;;;;;1.48;0.20;;;17.40;92.40;;;;;;5048502;28;20025;-86
2021/05/20 11:27:16;;;;;;;2.22;0.30;;;17.00;92.30;;;;;;5040818;28;20031;-86
2021/05/20 11:29:45;;;;;;;1.33;0.20;;;17.10;91.80;;;;;;5037284;28;20120;-85
2021/05/20 11:32:28;;;;;;;1.15;0.20;;;17.10;91.60;;;;;;5036177;28;20079;-86
2021/05/20 11:37:25;;;;;;;1.05;0.20;;;17.20;92.00;;;;;;5038156;28;20026;-86
2021/05/20 11:39:50;;;;;;;0.35;0.13;;;17.20;90.00;;;;;;5036807;28;20441;-86
2021/05/20 11:42:28;;;;;;;0.05;0.00;;;16.90;85.90;;;;;;5030969;28;20051;-86
2021/05/20 11:44:55;;;;;;;0.30;0.10;;;16.80;85.60;;;;;;5035953;28;20033;-86
2021/05/20 11:47:22;;;;;;;0.13;0.10;;;16.50;85.90;;;;;;5041311;28;20091;-85
2021/05/20 11:49:49;;;;;;;0.68;0.10;;;16.50;87.00;;;;;;5020113;28;20030;-86
2021/05/20 11:52:15;;;;;;;1.55;0.15;;;16.20;88.00;;;;;;5026678;28;20069;-84
2021/05/20 11:54:49;;;;;;;1.55;0.20;;;16.10;88.60;;;;;;5032477;28;20029;-86
2021/05/20 11:57:17;;;;;;;0.68;0.10;;;16.30;89.60;;;;;;5024511;28;20520;-85
2021/05/20 11:59:52;;;;;;;1.67;0.10;;;16.40;87.40;;;;;;5022581;28;20083;-86
2021/05/20 12:02:24;;;;;;;0.73;0.20;;;16.50;86.80;;;;;;5030804;28;20473;-86
2021/05/20 12:05:02;;;;;;;0.60;0.10;;;16.50;86.00;;;;;;5028784;28;20490;-87
2021/05/20 12:07:29;;;;;;;0.55;0.13;;;16.50;88.50;;;;;;5046805;28;20029;-86
2021/05/20 12:10:06;;;;;;;0.80;0.20;;;16.90;82.30;;;;;;5034139;28;20180;-86
2021/05/20 12:12:32;;;;;;;0.28;0.10;;;17.50;82.30;;;;;;5025250;28;20497;-88
2021/05/20 12:14:57;;;;;;;0.10;0.00;;;18.40;78.80;;;;;;5033165;28;20040;-88
2021/05/20 12:17:24;;;;;;;1.58;0.20;;;18.90;77.80;;;;;;5026328;28;20024;-88
2021/05/20 12:19:55;;;;;;;0.38;0.10;;;18.80;76.70;;;;;;5035401;28;20049;-87
2021/05/20 12:22:25;;;;;;;1.15;0.28;;;19.50;75.60;;;;;;5031912;28;20025;-86
2021/05/20 12:24:57;;;;;;;0.30;0.10;;;19.30;69.70;;;;;;5033158;28;20499;-86
2021/05/20 12:27:31;;;;;;;0.40;0.10;;;18.70;72.70;;;;;;5029294;28;20621;-87
2021/05/20 12:29:59;;;;;;;2.05;0.20;;;18.50;71.30;;;;;;5042964;28;20041;-85
2021/05/20 12:32:39;;;;;;;0.57;0.10;;;17.90;73.10;;;;;;5037659;28;20034;-85
2021/05/20 12:35:24;;;;;;;0.43;0.10;;;17.70;77.60;;;;;;5037134;28;20045;-85
2021/05/20 12:38:17;;;;;;;0.25;0.20;;;17.20;76.10;;;;;;5037299;28;20478;-87
2021/05/20 12:40:47;;;;;;;0.00;0.00;;;16.90;77.00;;;;;;5042976;28;20030;-86
2021/05/20 12:43:24;;;;;;;0.25;0.13;;;17.20;80.70;;;;;;5037295;28;20045;-86
2021/05/20 12:45:52;;;;;;;2.40;0.25;;;16.90;80.00;;;;;;5030213;28;20026;-86
2021/05/20 12:48:20;;;;;;;0.20;0.10;;;16.70;82.10;;;;;;5032710;28;20025;-86
2021/05/20 12:50:46;;;;;;;0.98;0.15;;;16.60;81.30;;;;;;5027029;28;20040;-86
2021/05/20 12:53:11;;;;;;;0.40;0.17;;;16.20;81.10;;;;;;5026745;28;20026;-88
2021/05/20 12:55:40;;;;;;;0.20;0.10;;;16.20;83.00;;;;;;5028907;28;20548;-85
2021/05/20 12:58:07;;;;;;;0.63;0.10;;;16.00;87.20;;;;;;5025276;28;20025;-85
2021/05/20 13:00:56;;;;;;;0.73;0.28;;;15.60;86.60;;;;;;5018987;28;20041;-85
2021/05/20 13:03:23;;;;;;;0.22;0.10;;;15.60;89.30;;;;;;5036804;28;20049;-83
2021/05/20 13:05:50;;;;;;;0.40;0.20;;;15.30;90.90;;;;;;5024734;28;20087;-85
2021/05/20 13:08:28;;;;;;;0.55;0.10;;;15.10;93.00;;;;;;5032388;28;20113;-85
2021/05/20 13:10:55;;;;;;;0.50;0.10;;;15.00;94.70;;;;;;5031508;28;20031;-84
2021/05/20 13:13:35;;;;;;;0.70;0.10;;;15.10;95.30;;;;;;5038183;28;20029;-86
2021/05/20 13:16:09;;;;;;;0.47;0.10;;;15.70;95.10;;;;;;5039330;28;20030;-83
2021/05/20 13:23:41;;;;;;;0.20;0.10;;;17.10;93.30;;;;;;5066309;28;20025;-86
2021/05/20 13:26:07;;;;;;;0.52;0.20;;;17.50;93.00;;;;;;5065275;28;20515;-86
2021/05/20 13:28:33;;;;;;;0.30;0.10;;;17.50;91.60;;;;;;5047835;28;20021;-85